46.3°F
Current conditions from King Hill
Updated every 5 minutes
 
  Monday November 24, 2014

Station Historical Data
Daily Summary for May 11, 2012 Units:  Both    English   Metric
« Previous Day
Next Day »
Daily Weekly Monthly Yearly Custom
  High: Low: Average:
Temperature: 61.4 °F /  16.3 °C 41.5 °F /  5.3 °C 50.5 °F /  10.3 °C
Dew Point: 41.6 °F /  5.3 °C 27.4 °F /  -2.6 °C 35.2 °F /  1.8 °C
Humidity: 92% 31% 60%
Wind Speed: 12.0mph /  19.3km/h - 5mph /  8km/h
Wind Gust: 24.0mph /  38.6km/h - -
Wind- - WNW
Pressure: 29.99 in /  1015.5 hPa 29.63 in /  1003.3 hPa -
Precipitation: 0.13 in /  3.3 mm    
Historical Graphs
 
 
Tabular Data for May 11, 2012
Time Temperature Dew Point Pressure Wind Wind Speed Wind Gust Humidity Daily Rainfall
00:04 43.1 °F /  6.2 °C 40.9 °F /  4.9 °C 29.63in /  1003.3hPa Calm   10.0mph /  16.1km/h 92% 0.01in /  0.3mm
00:09 43.1 °F /  6.2 °C 40.9 °F /  4.9 °C 29.63in /  1003.3hPa WNW 3.0mph /  4.8km/h 9.0mph /  14.5km/h 92% 0.01in /  0.3mm
00:15 43.0 °F /  6.1 °C 40.8 °F /  4.9 °C 29.63in /  1003.3hPa West 5.0mph /  8km/h 10.0mph /  16.1km/h 92% 0.02in /  0.5mm
00:19 43.0 °F /  6.1 °C 40.8 °F /  4.9 °C 29.63in /  1003.3hPa West 2.0mph /  3.2km/h 10.0mph /  16.1km/h 92% 0.03in /  0.8mm
00:24 43.0 °F /  6.1 °C 40.8 °F /  4.9 °C 29.64in /  1003.6hPa West 5.0mph /  8km/h 9.0mph /  14.5km/h 92% 0.04in /  1mm
00:29 42.9 °F /  6.1 °C 40.7 °F /  4.8 °C 29.64in /  1003.6hPa West 2.0mph /  3.2km/h 9.0mph /  14.5km/h 92% 0.05in /  1.3mm
00:34 42.9 °F /  6.1 °C 40.7 °F /  4.8 °C 29.64in /  1003.6hPa Calm   8.0mph /  12.9km/h 92% 0.05in /  1.3mm
00:39 42.9 °F /  6.1 °C 40.7 °F /  4.8 °C 29.64in /  1003.6hPa WNW 4.0mph /  6.4km/h 9.0mph /  14.5km/h 92% 0.06in /  1.5mm
00:44 42.8 °F /  6 °C 40.6 °F /  4.8 °C 29.64in /  1003.6hPa WNW 4.0mph /  6.4km/h 10.0mph /  16.1km/h 92% 0.07in /  1.8mm
00:49 42.9 °F /  6.1 °C 40.7 °F /  4.8 °C 29.64in /  1003.6hPa WNW 3.0mph /  4.8km/h 10.0mph /  16.1km/h 92% 0.07in /  1.8mm
00:54 42.8 °F /  6 °C 40.6 °F /  4.8 °C 29.64in /  1003.6hPa West 3.0mph /  4.8km/h 9.0mph /  14.5km/h 92% 0.07in /  1.8mm
00:59 42.8 °F /  6 °C 40.4 °F /  4.7 °C 29.65in /  1003.9hPa Calm   9.0mph /  14.5km/h 91% 0.08in /  2mm
01:04 42.8 °F /  6 °C 40.4 °F /  4.7 °C 29.65in /  1003.9hPa WNW 1.0mph /  1.6km/h 7.0mph /  11.3km/h 91% 0.09in /  2.3mm
01:09 42.7 °F /  5.9 °C 40.3 °F /  4.6 °C 29.65in /  1003.9hPa West 3.0mph /  4.8km/h 10.0mph /  16.1km/h 91% 0.09in /  2.3mm
01:14 42.8 °F /  6 °C 40.4 °F /  4.7 °C 29.65in /  1003.9hPa West 2.0mph /  3.2km/h 10.0mph /  16.1km/h 91% 0.09in /  2.3mm
01:19 42.8 °F /  6 °C 40.4 °F /  4.7 °C 29.65in /  1003.9hPa West 3.0mph /  4.8km/h 8.0mph /  12.9km/h 91% 0.10in /  2.5mm
01:24 42.8 °F /  6 °C 40.4 °F /  4.7 °C 29.65in /  1003.9hPa WNW 1.0mph /  1.6km/h 11.0mph /  17.7km/h 91% 0.10in /  2.5mm
01:29 42.8 °F /  6 °C 40.4 °F /  4.7 °C 29.65in /  1003.9hPa WNW 2.0mph /  3.2km/h 11.0mph /  17.7km/h 91% 0.11in /  2.8mm
01:34 42.8 °F /  6 °C 40.4 °F /  4.7 °C 29.65in /  1003.9hPa West 1.0mph /  1.6km/h 8.0mph /  12.9km/h 91% 0.11in /  2.8mm
01:39 42.8 °F /  6 °C 40.4 °F /  4.7 °C 29.65in /  1003.9hPa West 2.0mph /  3.2km/h 6.0mph /  9.7km/h 91% 0.11in /  2.8mm
01:44 42.8 °F /  6 °C 40.1 °F /  4.5 °C 29.65in /  1003.9hPa WNW 4.0mph /  6.4km/h 8.0mph /  12.9km/h 90% 0.11in /  2.8mm
01:49 42.9 °F /  6.1 °C 40.2 °F /  4.6 °C 29.66in /  1004.3hPa WNW 3.0mph /  4.8km/h 8.0mph /  12.9km/h 90% 0.11in /  2.8mm
01:54 42.9 °F /  6.1 °C 40.2 °F /  4.6 °C 29.66in /  1004.3hPa West 1.0mph /  1.6km/h 7.0mph /  11.3km/h 90% 0.11in /  2.8mm
01:59 42.9 °F /  6.1 °C 39.9 °F /  4.4 °C 29.66in /  1004.3hPa West 5.0mph /  8km/h 16.0mph /  25.7km/h 89% 0.12in /  3mm
02:04 42.9 °F /  6.1 °C 39.9 °F /  4.4 °C 29.66in /  1004.3hPa WNW 6.0mph /  9.7km/h 16.0mph /  25.7km/h 89% 0.12in /  3mm
02:09 43.0 °F /  6.1 °C 40.0 °F /  4.4 °C 29.66in /  1004.3hPa WNW 5.0mph /  8km/h 14.0mph /  22.5km/h 89% 0.12in /  3mm
02:14 43.0 °F /  6.1 °C 39.7 °F /  4.3 °C 29.67in /  1004.6hPa WNW 4.0mph /  6.4km/h 11.0mph /  17.7km/h 88% 0.12in /  3mm
02:19 43.0 °F /  6.1 °C 39.7 °F /  4.3 °C 29.67in /  1004.6hPa WNW 2.0mph /  3.2km/h 11.0mph /  17.7km/h 88% 0.12in /  3mm
02:24 43.0 °F /  6.1 °C 39.7 °F /  4.3 °C 29.67in /  1004.6hPa WNW 8.0mph /  12.9km/h 13.0mph /  20.9km/h 88% 0.12in /  3mm
02:29 43.0 °F /  6.1 °C 39.7 °F /  4.3 °C 29.67in /  1004.6hPa WNW 5.0mph /  8km/h 13.0mph /  20.9km/h 88% 0.12in /  3mm
02:34 42.9 °F /  6.1 °C 39.3 °F /  4.1 °C 29.67in /  1004.6hPa WNW 3.0mph /  4.8km/h 10.0mph /  16.1km/h 87% 0.12in /  3mm
02:39 42.9 °F /  6.1 °C 39.3 °F /  4.1 °C 29.67in /  1004.6hPa WNW 5.0mph /  8km/h 14.0mph /  22.5km/h 87% 0.12in /  3mm
02:45 42.9 °F /  6.1 °C 39.3 °F /  4.1 °C 29.67in /  1004.6hPa WNW 4.0mph /  6.4km/h 14.0mph /  22.5km/h 87% 0.12in /  3mm
02:54 42.8 °F /  6 °C 39.2 °F /  4 °C 29.68in /  1005hPa West 3.0mph /  4.8km/h 10.0mph /  16.1km/h 87% 0.13in /  3.3mm
02:59 42.7 °F /  5.9 °C 39.1 °F /  3.9 °C 29.68in /  1005hPa WNW 4.0mph /  6.4km/h 10.0mph /  16.1km/h 87% 0.13in /  3.3mm
03:04 42.7 °F /  5.9 °C 39.1 °F /  3.9 °C 29.68in /  1005hPa WNW 6.0mph /  9.7km/h 9.0mph /  14.5km/h 87% 0.13in /  3.3mm
03:09 42.7 °F /  5.9 °C 39.1 °F /  3.9 °C 29.68in /  1005hPa WNW 1.0mph /  1.6km/h 9.0mph /  14.5km/h 87% 0.13in /  3.3mm
03:14 42.7 °F /  5.9 °C 39.1 °F /  3.9 °C 29.68in /  1005hPa WNW 1.0mph /  1.6km/h 8.0mph /  12.9km/h 87% 0.13in /  3.3mm
03:19 42.6 °F /  5.9 °C 39.0 °F /  3.9 °C 29.69in /  1005.3hPa NW 2.0mph /  3.2km/h 8.0mph /  12.9km/h 87% 0.13in /  3.3mm
03:24 42.7 °F /  5.9 °C 39.1 °F /  3.9 °C 29.69in /  1005.3hPa WNW 5.0mph /  8km/h 9.0mph /  14.5km/h 87% 0.13in /  3.3mm
03:30 42.6 °F /  5.9 °C 39.0 °F /  3.9 °C 29.69in /  1005.3hPa WNW 5.0mph /  8km/h 9.0mph /  14.5km/h 87% 0.13in /  3.3mm
03:34 42.7 °F /  5.9 °C 38.8 °F /  3.8 °C 29.70in /  1005.6hPa WNW 7.0mph /  11.3km/h 19.0mph /  30.6km/h 86% 0.13in /  3.3mm
03:40 42.7 °F /  5.9 °C 38.8 °F /  3.8 °C 29.70in /  1005.6hPa WNW 6.0mph /  9.7km/h 19.0mph /  30.6km/h 86% 0.13in /  3.3mm
03:49 42.7 °F /  5.9 °C 38.5 °F /  3.6 °C 29.70in /  1005.6hPa WNW 6.0mph /  9.7km/h 11.0mph /  17.7km/h 85% 0.13in /  3.3mm
03:54 42.7 °F /  5.9 °C 38.5 °F /  3.6 °C 29.71in /  1006hPa WNW 6.0mph /  9.7km/h 13.0mph /  20.9km/h 85% 0.13in /  3.3mm
03:59 42.7 °F /  5.9 °C 38.5 °F /  3.6 °C 29.71in /  1006hPa NW 4.0mph /  6.4km/h 13.0mph /  20.9km/h 85% 0.13in /  3.3mm
04:04 42.6 °F /  5.9 °C 38.4 °F /  3.6 °C 29.71in /  1006hPa WNW 5.0mph /  8km/h 12.0mph /  19.3km/h 85% 0.13in /  3.3mm
04:09 42.6 °F /  5.9 °C 38.4 °F /  3.6 °C 29.71in /  1006hPa NW 4.0mph /  6.4km/h 10.0mph /  16.1km/h 85% 0.13in /  3.3mm
04:14 42.6 °F /  5.9 °C 38.1 °F /  3.4 °C 29.72in /  1006.3hPa NW 8.0mph /  12.9km/h 13.0mph /  20.9km/h 84% 0.13in /  3.3mm
04:19 42.6 °F /  5.9 °C 38.1 °F /  3.4 °C 29.72in /  1006.3hPa WNW 8.0mph /  12.9km/h 15.0mph /  24.1km/h 84% 0.13in /  3.3mm
04:24 42.6 °F /  5.9 °C 37.8 °F /  3.2 °C 29.72in /  1006.3hPa WNW 8.0mph /  12.9km/h 15.0mph /  24.1km/h 83% 0.13in /  3.3mm
04:29 42.6 °F /  5.9 °C 37.8 °F /  3.2 °C 29.72in /  1006.3hPa NW 4.0mph /  6.4km/h 12.0mph /  19.3km/h 83% 0.13in /  3.3mm
04:34 42.5 °F /  5.8 °C 37.7 °F /  3.2 °C 29.72in /  1006.3hPa NW 8.0mph /  12.9km/h 12.0mph /  19.3km/h 83% 0.13in /  3.3mm
04:39 42.4 °F /  5.8 °C 37.6 °F /  3.1 °C 29.73in /  1006.7hPa NW 6.0mph /  9.7km/h 12.0mph /  19.3km/h 83% 0.13in /  3.3mm
04:44 42.3 °F /  5.7 °C 37.5 °F /  3.1 °C 29.73in /  1006.7hPa NW 7.0mph /  11.3km/h 15.0mph /  24.1km/h 83% 0.13in /  3.3mm
04:49 42.2 °F /  5.7 °C 37.4 °F /  3 °C 29.73in /  1006.7hPa NW 9.0mph /  14.5km/h 17.0mph /  27.4km/h 83% 0.13in /  3.3mm
04:54 42.0 °F /  5.6 °C 37.2 °F /  2.9 °C 29.74in /  1007hPa NW 3.0mph /  4.8km/h 18.0mph /  29km/h 83% 0.13in /  3.3mm
04:59 41.9 °F /  5.5 °C 36.8 °F /  2.7 °C 29.74in /  1007hPa NW 11.0mph /  17.7km/h 18.0mph /  29km/h 82% 0.13in /  3.3mm
05:04 41.8 °F /  5.4 °C 37.0 °F /  2.8 °C 29.74in /  1007hPa NW 8.0mph /  12.9km/h 18.0mph /  29km/h 83% 0.13in /  3.3mm
05:09 41.8 °F /  5.4 °C 37.0 °F /  2.8 °C 29.74in /  1007hPa NW 6.0mph /  9.7km/h 18.0mph /  29km/h 83% 0.13in /  3.3mm
05:14 41.7 °F /  5.4 °C 36.9 °F /  2.7 °C 29.74in /  1007hPa WNW 7.0mph /  11.3km/h 16.0mph /  25.7km/h 83% 0.13in /  3.3mm
05:19 41.6 °F /  5.3 °C 36.8 °F /  2.7 °C 29.75in /  1007.3hPa NW 10.0mph /  16.1km/h 16.0mph /  25.7km/h 83% 0.13in /  3.3mm
05:24 41.6 °F /  5.3 °C 37.1 °F /  2.8 °C 29.75in /  1007.3hPa NW 6.0mph /  9.7km/h 15.0mph /  24.1km/h 84% 0.13in /  3.3mm
05:29 41.6 °F /  5.3 °C 37.1 °F /  2.8 °C 29.75in /  1007.3hPa NW 6.0mph /  9.7km/h 14.0mph /  22.5km/h 84% 0.13in /  3.3mm
05:34 41.5 °F /  5.3 °C 36.7 °F /  2.6 °C 29.75in /  1007.3hPa NW 6.0mph /  9.7km/h 18.0mph /  29km/h 83% 0.13in /  3.3mm
05:39 41.5 °F /  5.3 °C 36.7 °F /  2.6 °C 29.76in /  1007.7hPa NW 9.0mph /  14.5km/h 18.0mph /  29km/h 83% 0.13in /  3.3mm
05:44 41.5 °F /  5.3 °C 36.7 °F /  2.6 °C 29.76in /  1007.7hPa NW 4.0mph /  6.4km/h 16.0mph /  25.7km/h 83% 0.13in /  3.3mm
05:49 41.6 °F /  5.3 °C 36.5 °F /  2.5 °C 29.77in /  1008hPa NW 6.0mph /  9.7km/h 16.0mph /  25.7km/h 82% 0.13in /  3.3mm
05:54 41.7 °F /  5.4 °C 36.6 °F /  2.6 °C 29.76in /  1007.7hPa NW 6.0mph /  9.7km/h 16.0mph /  25.7km/h 82% 0.13in /  3.3mm
05:59 41.8 °F /  5.4 °C 36.4 °F /  2.4 °C 29.77in /  1008hPa NW 7.0mph /  11.3km/h 14.0mph /  22.5km/h 81% 0.13in /  3.3mm
06:04 41.9 °F /  5.5 °C 36.5 °F /  2.5 °C 29.77in /  1008hPa NW 4.0mph /  6.4km/h 13.0mph /  20.9km/h 81% 0.13in /  3.3mm
06:09 41.9 °F /  5.5 °C 36.5 °F /  2.5 °C 29.77in /  1008hPa NW 3.0mph /  4.8km/h 9.0mph /  14.5km/h 81% 0.13in /  3.3mm
06:14 41.9 °F /  5.5 °C 36.8 °F /  2.7 °C 29.78in /  1008.4hPa WNW 1.0mph /  1.6km/h 7.0mph /  11.3km/h 82% 0.13in /  3.3mm
06:19 41.9 °F /  5.5 °C 36.8 °F /  2.7 °C 29.78in /  1008.4hPa Calm   5.0mph /  8km/h 82% 0.13in /  3.3mm
06:24 41.9 °F /  5.5 °C 36.8 °F /  2.7 °C 29.78in /  1008.4hPa WNW 1.0mph /  1.6km/h 6.0mph /  9.7km/h 82% 0.13in /  3.3mm
06:30 42.0 °F /  5.6 °C 36.9 °F /  2.7 °C 29.78in /  1008.4hPa NW 1.0mph /  1.6km/h 7.0mph /  11.3km/h 82% 0.13in /  3.3mm
06:39 42.2 °F /  5.7 °C 37.1 °F /  2.8 °C 29.78in /  1008.4hPa Calm   1.0mph /  1.6km/h 82% 0.13in /  3.3mm
06:44 42.3 °F /  5.7 °C 37.5 °F /  3.1 °C 29.78in /  1008.4hPa Calm   2.0mph /  3.2km/h 83% 0.13in /  3.3mm
06:49 42.4 °F /  5.8 °C 37.6 °F /  3.1 °C 29.78in /  1008.4hPa Calm   2.0mph /  3.2km/h 83% 0.13in /  3.3mm
06:54 42.4 °F /  5.8 °C 37.6 °F /  3.1 °C 29.78in /  1008.4hPa Calm     83% 0.13in /  3.3mm
06:59 42.6 °F /  5.9 °C 37.5 °F /  3.1 °C 29.79in /  1008.7hPa Calm     82% 0.13in /  3.3mm
07:04 42.7 °F /  5.9 °C 37.6 °F /  3.1 °C 29.79in /  1008.7hPa Calm     82% 0.13in /  3.3mm
07:09 42.8 °F /  6 °C 37.7 °F /  3.2 °C 29.79in /  1008.7hPa Calm     82% 0.13in /  3.3mm
07:14 42.9 °F /  6.1 °C 37.8 °F /  3.2 °C 29.80in /  1009hPa Calm     82% 0.13in /  3.3mm
07:19 43.0 °F /  6.1 °C 37.9 °F /  3.3 °C 29.80in /  1009hPa NW 2.0mph /  3.2km/h 4.0mph /  6.4km/h 82% 0.13in /  3.3mm
07:24 43.0 °F /  6.1 °C 37.6 °F /  3.1 °C 29.80in /  1009hPa NW 1.0mph /  1.6km/h 4.0mph /  6.4km/h 81% 0.13in /  3.3mm
07:29 43.2 °F /  6.2 °C 38.1 °F /  3.4 °C 29.79in /  1008.7hPa Calm   4.0mph /  6.4km/h 82% 0.13in /  3.3mm
07:34 43.5 °F /  6.4 °C 38.4 °F /  3.6 °C 29.79in /  1008.7hPa Calm   2.0mph /  3.2km/h 82% 0.13in /  3.3mm
07:39 43.7 °F /  6.5 °C 38.3 °F /  3.5 °C 29.79in /  1008.7hPa Calm   5.0mph /  8km/h 81% 0.13in /  3.3mm
07:44 43.7 °F /  6.5 °C 37.9 °F /  3.3 °C 29.79in /  1008.7hPa Calm   5.0mph /  8km/h 80% 0.13in /  3.3mm
07:49 43.8 °F /  6.6 °C 38.0 °F /  3.3 °C 29.79in /  1008.7hPa Calm   4.0mph /  6.4km/h 80% 0.13in /  3.3mm
07:54 44.0 °F /  6.7 °C 37.9 °F /  3.3 °C 29.79in /  1008.7hPa Calm     79% 0.13in /  3.3mm
07:59 44.2 °F /  6.8 °C 38.1 °F /  3.4 °C 29.79in /  1008.7hPa Calm     79% 0.13in /  3.3mm
08:04 44.4 °F /  6.9 °C 38.3 °F /  3.5 °C 29.80in /  1009hPa Calm   1.0mph /  1.6km/h 79% 0.13in /  3.3mm
08:09 44.5 °F /  6.9 °C 38.1 °F /  3.4 °C 29.80in /  1009hPa Calm   3.0mph /  4.8km/h 78% 0.13in /  3.3mm
08:14 44.8 °F /  7.1 °C 38.7 °F /  3.7 °C 29.80in /  1009hPa Calm   3.0mph /  4.8km/h 79% 0.13in /  3.3mm
08:19 45.2 °F /  7.3 °C 38.4 °F /  3.6 °C 29.80in /  1009hPa SW 2.0mph /  3.2km/h 4.0mph /  6.4km/h 77% 0.13in /  3.3mm
08:24 46.0 °F /  7.8 °C 39.5 °F /  4.2 °C 29.81in /  1009.4hPa SW 1.0mph /  1.6km/h 5.0mph /  8km/h 78% 0.13in /  3.3mm
08:29 46.7 °F /  8.2 °C 39.2 °F /  4 °C 29.80in /  1009hPa SW 3.0mph /  4.8km/h 7.0mph /  11.3km/h 75% 0.13in /  3.3mm
08:34 47.1 °F /  8.4 °C 38.5 °F /  3.6 °C 29.81in /  1009.4hPa WSW 2.0mph /  3.2km/h 8.0mph /  12.9km/h 72% 0.13in /  3.3mm
08:39 47.5 °F /  8.6 °C 38.9 °F /  3.8 °C 29.81in /  1009.4hPa NW 2.0mph /  3.2km/h 13.0mph /  20.9km/h 72% 0.13in /  3.3mm
08:44 47.7 °F /  8.7 °C 39.5 °F /  4.2 °C 29.81in /  1009.4hPa WNW 4.0mph /  6.4km/h 13.0mph /  20.9km/h 73% 0.13in /  3.3mm
08:49 47.5 °F /  8.6 °C 38.6 °F /  3.7 °C 29.81in /  1009.4hPa WNW 3.0mph /  4.8km/h 9.0mph /  14.5km/h 71% 0.13in /  3.3mm
08:54 47.4 °F /  8.6 °C 38.8 °F /  3.8 °C 29.81in /  1009.4hPa WNW 6.0mph /  9.7km/h 8.0mph /  12.9km/h 72% 0.13in /  3.3mm
08:59 47.6 °F /  8.7 °C 39.7 °F /  4.3 °C 29.81in /  1009.4hPa WSW 2.0mph /  3.2km/h 8.0mph /  12.9km/h 74% 0.13in /  3.3mm
09:04 48.0 °F /  8.9 °C 39.8 °F /  4.3 °C 29.81in /  1009.4hPa WNW 3.0mph /  4.8km/h 8.0mph /  12.9km/h 73% 0.13in /  3.3mm
09:09 48.3 °F /  9.1 °C 40.1 °F /  4.5 °C 29.81in /  1009.4hPa WNW 2.0mph /  3.2km/h 8.0mph /  12.9km/h 73% 0.13in /  3.3mm
09:14 48.3 °F /  9.1 °C 39.7 °F /  4.3 °C 29.81in /  1009.4hPa WSW 1.0mph /  1.6km/h 8.0mph /  12.9km/h 72% 0.13in /  3.3mm
09:19 48.2 °F /  9 °C 39.6 °F /  4.2 °C 29.81in /  1009.4hPa NW 3.0mph /  4.8km/h 10.0mph /  16.1km/h 72% 0.13in /  3.3mm
09:24 48.3 °F /  9.1 °C 39.3 °F /  4.1 °C 29.82in /  1009.7hPa WNW 4.0mph /  6.4km/h 12.0mph /  19.3km/h 71% 0.13in /  3.3mm
09:29 48.6 °F /  9.2 °C 40.0 °F /  4.4 °C 29.82in /  1009.7hPa West 4.0mph /  6.4km/h 12.0mph /  19.3km/h 72% 0.13in /  3.3mm
09:34 49.0 °F /  9.4 °C 40.0 °F /  4.4 °C 29.82in /  1009.7hPa WNW 3.0mph /  4.8km/h 11.0mph /  17.7km/h 71% 0.13in /  3.3mm
09:40 49.7 °F /  9.8 °C 39.6 °F /  4.2 °C 29.82in /  1009.7hPa WNW 5.0mph /  8km/h 13.0mph /  20.9km/h 68% 0.13in /  3.3mm
09:49 50.6 °F /  10.3 °C 39.3 °F /  4.1 °C 29.82in /  1009.7hPa NW 6.0mph /  9.7km/h 12.0mph /  19.3km/h 65% 0.13in /  3.3mm
09:54 51.0 °F /  10.6 °C 40.0 °F /  4.4 °C 29.82in /  1009.7hPa WNW 5.0mph /  8km/h 12.0mph /  19.3km/h 66% 0.13in /  3.3mm
09:59 51.8 °F /  11 °C 41.6 °F /  5.3 °C 29.82in /  1009.7hPa West 7.0mph /  11.3km/h 12.0mph /  19.3km/h 68% 0.13in /  3.3mm
10:04 52.1 °F /  11.2 °C 41.5 °F /  5.3 °C 29.82in /  1009.7hPa WNW 8.0mph /  12.9km/h 13.0mph /  20.9km/h 67% 0.13in /  3.3mm
10:09 52.5 °F /  11.4 °C 40.7 °F /  4.8 °C 29.82in /  1009.7hPa WNW 3.0mph /  4.8km/h 13.0mph /  20.9km/h 64% 0.13in /  3.3mm
10:14 52.3 °F /  11.3 °C 38.8 °F /  3.8 °C 29.82in /  1009.7hPa NW 4.0mph /  6.4km/h 13.0mph /  20.9km/h 60% 0.13in /  3.3mm
10:19 52.5 °F /  11.4 °C 38.2 °F /  3.4 °C 29.82in /  1009.7hPa NW 4.0mph /  6.4km/h 13.0mph /  20.9km/h 58% 0.13in /  3.3mm
10:24 52.7 °F /  11.5 °C 38.3 °F /  3.5 °C 29.83in /  1010hPa WNW 12.0mph /  19.3km/h 18.0mph /  29km/h 58% 0.13in /  3.3mm
10:29 52.8 °F /  11.6 °C 34.7 °F /  1.5 °C 29.82in /  1009.7hPa WNW 8.0mph /  12.9km/h 18.0mph /  29km/h 50% 0.13in /  3.3mm
10:34 53.3 °F /  11.8 °C 38.0 °F /  3.3 °C 29.82in /  1009.7hPa NNW 4.0mph /  6.4km/h 15.0mph /  24.1km/h 56% 0.13in /  3.3mm
10:39 53.3 °F /  11.8 °C 35.1 °F /  1.7 °C 29.83in /  1010hPa NW 8.0mph /  12.9km/h 15.0mph /  24.1km/h 50% 0.13in /  3.3mm
10:44 53.4 °F /  11.9 °C 34.7 °F /  1.5 °C 29.83in /  1010hPa NNW 5.0mph /  8km/h 19.0mph /  30.6km/h 49% 0.13in /  3.3mm
10:49 53.8 °F /  12.1 °C 36.6 °F /  2.6 °C 29.83in /  1010hPa NNW 4.0mph /  6.4km/h 19.0mph /  30.6km/h 52% 0.13in /  3.3mm
10:54 54.1 °F /  12.3 °C 36.9 °F /  2.7 °C 29.83in /  1010hPa NW 7.0mph /  11.3km/h 15.0mph /  24.1km/h 52% 0.13in /  3.3mm
10:59 54.0 °F /  12.2 °C 34.8 °F /  1.6 °C 29.83in /  1010hPa NW 7.0mph /  11.3km/h 15.0mph /  24.1km/h 48% 0.13in /  3.3mm
11:04 54.4 °F /  12.4 °C 35.1 °F /  1.7 °C 29.83in /  1010hPa NW 7.0mph /  11.3km/h 15.0mph /  24.1km/h 48% 0.13in /  3.3mm
11:09 54.6 °F /  12.6 °C 34.2 °F /  1.2 °C 29.83in /  1010hPa NW 5.0mph /  8km/h 19.0mph /  30.6km/h 46% 0.13in /  3.3mm
11:14 54.9 °F /  12.7 °C 35.6 °F /  2 °C 29.83in /  1010hPa NNW 3.0mph /  4.8km/h 19.0mph /  30.6km/h 48% 0.13in /  3.3mm
11:19 55.0 °F /  12.8 °C 34.6 °F /  1.4 °C 29.83in /  1010hPa NNW 5.0mph /  8km/h 16.0mph /  25.7km/h 46% 0.13in /  3.3mm
11:25 54.8 °F /  12.7 °C 33.3 °F /  0.7 °C 29.83in /  1010hPa WNW 7.0mph /  11.3km/h 16.0mph /  25.7km/h 44% 0.13in /  3.3mm
11:34 55.9 °F /  13.3 °C 33.7 °F /  0.9 °C 29.84in /  1010.4hPa NNW 6.0mph /  9.7km/h 13.0mph /  20.9km/h 43% 0.13in /  3.3mm
11:39 56.1 °F /  13.4 °C 33.3 °F /  0.7 °C 29.83in /  1010hPa NNW 4.0mph /  6.4km/h 13.0mph /  20.9km/h 42% 0.13in /  3.3mm
11:44 55.7 °F /  13.2 °C 35.2 °F /  1.8 °C 29.83in /  1010hPa NW 7.0mph /  11.3km/h 21.0mph /  33.8km/h 46% 0.13in /  3.3mm
11:49 55.5 °F /  13.1 °C 32.2 °F /  0.1 °C 29.84in /  1010.4hPa NNW 4.0mph /  6.4km/h 21.0mph /  33.8km/h 41% 0.13in /  3.3mm
11:54 55.7 °F /  13.2 °C 33.0 °F /  0.6 °C 29.83in /  1010hPa NW 7.0mph /  11.3km/h 17.0mph /  27.4km/h 42% 0.13in /  3.3mm
11:59 56.1 °F /  13.4 °C 34.5 °F /  1.4 °C 29.83in /  1010hPa WNW 7.0mph /  11.3km/h 16.0mph /  25.7km/h 44% 0.13in /  3.3mm
12:04 55.9 °F /  13.3 °C 34.3 °F /  1.3 °C 29.83in /  1010hPa NW 5.0mph /  8km/h 24.0mph /  38.6km/h 44% 0.13in /  3.3mm
12:09 56.4 °F /  13.6 °C 33.6 °F /  0.9 °C 29.84in /  1010.4hPa WNW 6.0mph /  9.7km/h 24.0mph /  38.6km/h 42% 0.13in /  3.3mm
12:14 56.7 °F /  13.7 °C 33.3 °F /  0.7 °C 29.84in /  1010.4hPa NNW 6.0mph /  9.7km/h 15.0mph /  24.1km/h 41% 0.13in /  3.3mm
12:19 56.7 °F /  13.7 °C 33.3 °F /  0.7 °C 29.83in /  1010hPa NNW 7.0mph /  11.3km/h 13.0mph /  20.9km/h 41% 0.13in /  3.3mm
12:24 57.4 °F /  14.1 °C 37.3 °F /  2.9 °C 29.83in /  1010hPa North 4.0mph /  6.4km/h 13.0mph /  20.9km/h 47% 0.13in /  3.3mm
12:29 57.7 °F /  14.3 °C 35.4 °F /  1.9 °C 29.84in /  1010.4hPa NW 8.0mph /  12.9km/h 14.0mph /  22.5km/h 43% 0.13in /  3.3mm
12:34 57.2 °F /  14 °C 33.7 °F /  0.9 °C 29.83in /  1010hPa NNW 6.0mph /  9.7km/h 14.0mph /  22.5km/h 41% 0.13in /  3.3mm
12:39 57.3 °F /  14.1 °C 31.3 °F /  -0.4 °C 29.84in /  1010.4hPa NNW 7.0mph /  11.3km/h 14.0mph /  22.5km/h 37% 0.13in /  3.3mm
12:44 57.3 °F /  14.1 °C 35.6 °F /  2 °C 29.83in /  1010hPa North 4.0mph /  6.4km/h 15.0mph /  24.1km/h 44% 0.13in /  3.3mm
12:49 57.8 °F /  14.3 °C 34.9 °F /  1.6 °C 29.84in /  1010.4hPa NNW 7.0mph /  11.3km/h 15.0mph /  24.1km/h 42% 0.13in /  3.3mm
12:55 58.1 °F /  14.5 °C 36.9 °F /  2.7 °C 29.84in /  1010.4hPa NW 4.0mph /  6.4km/h 14.0mph /  22.5km/h 45% 0.13in /  3.3mm
13:04 59.0 °F /  15 °C 35.3 °F /  1.8 °C 29.84in /  1010.4hPa NNW 4.0mph /  6.4km/h 13.0mph /  20.9km/h 41% 0.13in /  3.3mm
13:09 58.8 °F /  14.9 °C 34.5 °F /  1.4 °C 29.85in /  1010.7hPa NNW 6.0mph /  9.7km/h 15.0mph /  24.1km/h 40% 0.13in /  3.3mm
13:14 58.5 °F /  14.7 °C 33.0 °F /  0.6 °C 29.85in /  1010.7hPa NW 6.0mph /  9.7km/h 15.0mph /  24.1km/h 38% 0.13in /  3.3mm
13:19 58.3 °F /  14.6 °C 33.5 °F /  0.8 °C 29.85in /  1010.7hPa NW 6.0mph /  9.7km/h 16.0mph /  25.7km/h 39% 0.13in /  3.3mm
13:24 57.9 °F /  14.4 °C 31.8 °F /  -0.1 °C 29.85in /  1010.7hPa NW 7.0mph /  11.3km/h 16.0mph /  25.7km/h 37% 0.13in /  3.3mm
13:30 58.0 °F /  14.4 °C 34.4 °F /  1.3 °C 29.85in /  1010.7hPa WNW 8.0mph /  12.9km/h 15.0mph /  24.1km/h 41% 0.13in /  3.3mm
13:39 58.9 °F /  14.9 °C 34.6 °F /  1.4 °C 29.85in /  1010.7hPa NNW 3.0mph /  4.8km/h 15.0mph /  24.1km/h 40% 0.13in /  3.3mm
13:44 59.0 °F /  15 °C 34.7 °F /  1.5 °C 29.84in /  1010.4hPa NW 9.0mph /  14.5km/h 15.0mph /  24.1km/h 40% 0.13in /  3.3mm
13:49 59.5 °F /  15.3 °C 35.2 °F /  1.8 °C 29.85in /  1010.7hPa NNW 5.0mph /  8km/h 15.0mph /  24.1km/h 40% 0.13in /  3.3mm
13:54 59.0 °F /  15 °C 35.3 °F /  1.8 °C 29.85in /  1010.7hPa NNW 5.0mph /  8km/h 15.0mph /  24.1km/h 41% 0.13in /  3.3mm
13:59 59.3 °F /  15.2 °C 36.8 °F /  2.7 °C 29.84in /  1010.4hPa NW 8.0mph /  12.9km/h 16.0mph /  25.7km/h 43% 0.13in /  3.3mm
14:04 59.0 °F /  15 °C 36.0 °F /  2.2 °C 29.85in /  1010.7hPa NNW 3.0mph /  4.8km/h 16.0mph /  25.7km/h 42% 0.13in /  3.3mm
14:09 59.1 °F /  15.1 °C 37.2 °F /  2.9 °C 29.85in /  1010.7hPa NW 5.0mph /  8km/h 15.0mph /  24.1km/h 44% 0.13in /  3.3mm
14:14 59.9 °F /  15.5 °C 33.6 °F /  0.9 °C 29.85in /  1010.7hPa NW 9.0mph /  14.5km/h 17.0mph /  27.4km/h 37% 0.13in /  3.3mm
14:19 59.5 °F /  15.3 °C 36.4 °F /  2.4 °C 29.85in /  1010.7hPa North 6.0mph /  9.7km/h 17.0mph /  27.4km/h 42% 0.13in /  3.3mm
14:24 59.5 °F /  15.3 °C 34.5 °F /  1.4 °C 29.85in /  1010.7hPa NNW 6.0mph /  9.7km/h 19.0mph /  30.6km/h 39% 0.13in /  3.3mm
14:29 59.5 °F /  15.3 °C 35.2 °F /  1.8 °C 29.85in /  1010.7hPa NW 7.0mph /  11.3km/h 19.0mph /  30.6km/h 40% 0.13in /  3.3mm
14:34 59.9 °F /  15.5 °C 34.9 °F /  1.6 °C 29.85in /  1010.7hPa NW 5.0mph /  8km/h 13.0mph /  20.9km/h 39% 0.13in /  3.3mm
14:39 60.3 °F /  15.7 °C 33.9 °F /  1.1 °C 29.85in /  1010.7hPa NW 11.0mph /  17.7km/h 17.0mph /  27.4km/h 37% 0.13in /  3.3mm
14:44 59.9 °F /  15.5 °C 33.6 °F /  0.9 °C 29.85in /  1010.7hPa WNW 8.0mph /  12.9km/h 17.0mph /  27.4km/h 37% 0.13in /  3.3mm
14:49 59.7 °F /  15.4 °C 34.1 °F /  1.2 °C 29.85in /  1010.7hPa NW 10.0mph /  16.1km/h 17.0mph /  27.4km/h 38% 0.13in /  3.3mm
14:54 59.8 °F /  15.4 °C 34.8 °F /  1.6 °C 29.85in /  1010.7hPa West 11.0mph /  17.7km/h 17.0mph /  27.4km/h 39% 0.13in /  3.3mm
14:59 59.5 °F /  15.3 °C 33.9 °F /  1.1 °C 29.85in /  1010.7hPa NW 7.0mph /  11.3km/h 16.0mph /  25.7km/h 38% 0.13in /  3.3mm
15:04 59.8 °F /  15.4 °C 34.8 °F /  1.6 °C 29.86in /  1011.1hPa NW 8.0mph /  12.9km/h 17.0mph /  27.4km/h 39% 0.13in /  3.3mm
15:09 59.9 °F /  15.5 °C 33.6 °F /  0.9 °C 29.85in /  1010.7hPa NW 8.0mph /  12.9km/h 17.0mph /  27.4km/h 37% 0.13in /  3.3mm
15:14 60.0 °F /  15.6 °C 35.0 °F /  1.7 °C 29.86in /  1011.1hPa WNW 8.0mph /  12.9km/h 19.0mph /  30.6km/h 39% 0.13in /  3.3mm
15:19 60.0 °F /  15.6 °C 33.7 °F /  0.9 °C 29.86in /  1011.1hPa NW 7.0mph /  11.3km/h 19.0mph /  30.6km/h 37% 0.13in /  3.3mm
15:24 60.4 °F /  15.8 °C 35.3 °F /  1.8 °C 29.86in /  1011.1hPa West 6.0mph /  9.7km/h 16.0mph /  25.7km/h 39% 0.13in /  3.3mm
15:29 60.7 °F /  15.9 °C 34.3 °F /  1.3 °C 29.86in /  1011.1hPa NW 7.0mph /  11.3km/h 13.0mph /  20.9km/h 37% 0.13in /  3.3mm
15:34 61.1 °F /  16.2 °C 36.6 °F /  2.6 °C 29.86in /  1011.1hPa NNW 4.0mph /  6.4km/h 14.0mph /  22.5km/h 40% 0.13in /  3.3mm
15:39 61.3 °F /  16.3 °C 34.1 °F /  1.2 °C 29.86in /  1011.1hPa NW 9.0mph /  14.5km/h 16.0mph /  25.7km/h 36% 0.13in /  3.3mm
15:44 60.9 °F /  16.1 °C 34.5 °F /  1.4 °C 29.86in /  1011.1hPa WNW 6.0mph /  9.7km/h 16.0mph /  25.7km/h 37% 0.13in /  3.3mm
15:49 60.9 °F /  16.1 °C 35.1 °F /  1.7 °C 29.86in /  1011.1hPa NW 8.0mph /  12.9km/h 14.0mph /  22.5km/h 38% 0.13in /  3.3mm
15:59 61.0 °F /  16.1 °C 36.5 °F /  2.5 °C 29.86in /  1011.1hPa NW 5.0mph /  8km/h 17.0mph /  27.4km/h 40% 0.13in /  3.3mm
16:04 61.2 °F /  16.2 °C 32.6 °F /  0.3 °C 29.86in /  1011.1hPa WNW 8.0mph /  12.9km/h 17.0mph /  27.4km/h 34% 0.13in /  3.3mm
16:09 61.1 °F /  16.2 °C 34.6 °F /  1.4 °C 29.87in /  1011.4hPa WNW 9.0mph /  14.5km/h 16.0mph /  25.7km/h 37% 0.13in /  3.3mm
16:14 61.3 °F /  16.3 °C 34.8 °F /  1.6 °C 29.87in /  1011.4hPa NNW 6.0mph /  9.7km/h 15.0mph /  24.1km/h 37% 0.13in /  3.3mm
16:19 61.2 °F /  16.2 °C 33.3 °F /  0.7 °C 29.87in /  1011.4hPa WNW 5.0mph /  8km/h 14.0mph /  22.5km/h 35% 0.13in /  3.3mm
16:25 61.4 °F /  16.3 °C 32.8 °F /  0.4 °C 29.87in /  1011.4hPa NW 7.0mph /  11.3km/h 16.0mph /  25.7km/h 34% 0.13in /  3.3mm
16:35 61.1 °F /  16.2 °C 34.6 °F /  1.4 °C 29.87in /  1011.4hPa NW 3.0mph /  4.8km/h 15.0mph /  24.1km/h 37% 0.13in /  3.3mm
16:44 60.9 °F /  16.1 °C 32.4 °F /  0.2 °C 29.88in /  1011.7hPa NNW 5.0mph /  8km/h 16.0mph /  25.7km/h 34% 0.13in /  3.3mm
16:50 60.9 °F /  16.1 °C 32.4 °F /  0.2 °C 29.88in /  1011.7hPa NW 6.0mph /  9.7km/h 16.0mph /  25.7km/h 34% 0.13in /  3.3mm
16:59 60.4 °F /  15.8 °C 33.3 °F /  0.7 °C 29.88in /  1011.7hPa NNW 3.0mph /  4.8km/h 19.0mph /  30.6km/h 36% 0.13in /  3.3mm
17:04 60.8 °F /  16 °C 31.5 °F /  -0.3 °C 29.88in /  1011.7hPa NNW 5.0mph /  8km/h 15.0mph /  24.1km/h 33% 0.13in /  3.3mm
17:09 60.6 °F /  15.9 °C 31.3 °F /  -0.4 °C 29.88in /  1011.7hPa NW 8.0mph /  12.9km/h 14.0mph /  22.5km/h 33% 0.13in /  3.3mm
17:14 60.4 °F /  15.8 °C 31.2 °F /  -0.4 °C 29.89in /  1012.1hPa North 7.0mph /  11.3km/h 17.0mph /  27.4km/h 33% 0.13in /  3.3mm
17:19 60.8 °F /  16 °C 31.5 °F /  -0.3 °C 29.89in /  1012.1hPa NNW 8.0mph /  12.9km/h 17.0mph /  27.4km/h 33% 0.13in /  3.3mm
17:24 60.8 °F /  16 °C 30.8 °F /  -0.7 °C 29.89in /  1012.1hPa NW 6.0mph /  9.7km/h 15.0mph /  24.1km/h 32% 0.13in /  3.3mm
17:29 60.8 °F /  16 °C 32.3 °F /  0.2 °C 29.89in /  1012.1hPa NNW 2.0mph /  3.2km/h 15.0mph /  24.1km/h 34% 0.13in /  3.3mm
17:34 61.1 °F /  16.2 °C 31.8 °F /  -0.1 °C 29.90in /  1012.4hPa NNW 2.0mph /  3.2km/h 13.0mph /  20.9km/h 33% 0.13in /  3.3mm
17:39 61.2 °F /  16.2 °C 33.3 °F /  0.7 °C 29.89in /  1012.1hPa North 2.0mph /  3.2km/h 13.0mph /  20.9km/h 35% 0.13in /  3.3mm
17:44 61.2 °F /  16.2 °C 30.3 °F /  -0.9 °C 29.90in /  1012.4hPa NW 6.0mph /  9.7km/h 10.0mph /  16.1km/h 31% 0.13in /  3.3mm
17:49 61.0 °F /  16.1 °C 31.7 °F /  -0.2 °C 29.90in /  1012.4hPa NW 6.0mph /  9.7km/h 12.0mph /  19.3km/h 33% 0.13in /  3.3mm
17:59 61.0 °F /  16.1 °C 31.7 °F /  -0.2 °C 29.90in /  1012.4hPa NW 3.0mph /  4.8km/h 12.0mph /  19.3km/h 33% 0.13in /  3.3mm
18:04 60.7 °F /  15.9 °C 30.7 °F /  -0.7 °C 29.90in /  1012.4hPa WNW 4.0mph /  6.4km/h 10.0mph /  16.1km/h 32% 0.13in /  3.3mm
18:09 60.3 °F /  15.7 °C 30.3 °F /  -0.9 °C 29.90in /  1012.4hPa NNW 6.0mph /  9.7km/h 19.0mph /  30.6km/h 32% 0.13in /  3.3mm
18:14 60.2 °F /  15.7 °C 29.5 °F /  -1.4 °C 29.90in /  1012.4hPa NW 6.0mph /  9.7km/h 19.0mph /  30.6km/h 31% 0.13in /  3.3mm
18:19 59.8 °F /  15.4 °C 29.9 °F /  -1.2 °C 29.90in /  1012.4hPa NW 6.0mph /  9.7km/h 17.0mph /  27.4km/h 32% 0.13in /  3.3mm
18:24 59.8 °F /  15.4 °C 29.1 °F /  -1.6 °C 29.90in /  1012.4hPa NNW 4.0mph /  6.4km/h 16.0mph /  25.7km/h 31% 0.13in /  3.3mm
18:29 59.8 °F /  15.4 °C 29.1 °F /  -1.6 °C 29.90in /  1012.4hPa NW 7.0mph /  11.3km/h 13.0mph /  20.9km/h 31% 0.13in /  3.3mm
18:34 59.8 °F /  15.4 °C 30.6 °F /  -0.8 °C 29.90in /  1012.4hPa NNW 2.0mph /  3.2km/h 13.0mph /  20.9km/h 33% 0.13in /  3.3mm
18:39 60.0 °F /  15.6 °C 29.3 °F /  -1.5 °C 29.91in /  1012.8hPa NW 2.0mph /  3.2km/h 10.0mph /  16.1km/h 31% 0.13in /  3.3mm
18:44 60.0 °F /  15.6 °C 30.1 °F /  -1.1 °C 29.91in /  1012.8hPa WNW 2.0mph /  3.2km/h 10.0mph /  16.1km/h 32% 0.13in /  3.3mm
18:49 59.6 °F /  15.3 °C 29.7 °F /  -1.3 °C 29.91in /  1012.8hPa WNW 2.0mph /  3.2km/h 9.0mph /  14.5km/h 32% 0.13in /  3.3mm
18:54 59.4 °F /  15.2 °C 30.3 °F /  -0.9 °C 29.91in /  1012.8hPa NW 1.0mph /  1.6km/h 8.0mph /  12.9km/h 33% 0.13in /  3.3mm
18:59 59.5 °F /  15.3 °C 29.6 °F /  -1.3 °C 29.91in /  1012.8hPa Calm   8.0mph /  12.9km/h 32% 0.13in /  3.3mm
19:04 59.4 °F /  15.2 °C 31.0 °F /  -0.6 °C 29.91in /  1012.8hPa NW 1.0mph /  1.6km/h 7.0mph /  11.3km/h 34% 0.13in /  3.3mm
19:09 59.1 °F /  15.1 °C 30.8 °F /  -0.7 °C 29.91in /  1012.8hPa Calm   7.0mph /  11.3km/h 34% 0.13in /  3.3mm
19:14 59.0 °F /  15 °C 30.7 °F /  -0.7 °C 29.91in /  1012.8hPa Calm   6.0mph /  9.7km/h 34% 0.13in /  3.3mm
19:19 58.3 °F /  14.6 °C 30.1 °F /  -1.1 °C 29.92in /  1013.1hPa NW 1.0mph /  1.6km/h 6.0mph /  9.7km/h 34% 0.13in /  3.3mm
19:24 57.9 °F /  14.4 °C 29.7 °F /  -1.3 °C 29.92in /  1013.1hPa Calm   8.0mph /  12.9km/h 34% 0.13in /  3.3mm
19:29 57.6 °F /  14.2 °C 30.8 °F /  -0.7 °C 29.92in /  1013.1hPa Calm   8.0mph /  12.9km/h 36% 0.13in /  3.3mm
19:34 57.3 °F /  14.1 °C 29.2 °F /  -1.6 °C 29.92in /  1013.1hPa NW 1.0mph /  1.6km/h 5.0mph /  8km/h 34% 0.13in /  3.3mm
19:40 56.9 °F /  13.8 °C 30.2 °F /  -1 °C 29.92in /  1013.1hPa Calm   5.0mph /  8km/h 36% 0.13in /  3.3mm
19:49 56.2 °F /  13.4 °C 29.6 °F /  -1.3 °C 29.92in /  1013.1hPa Calm   7.0mph /  11.3km/h 36% 0.13in /  3.3mm
19:54 55.7 °F /  13.2 °C 29.2 °F /  -1.6 °C 29.92in /  1013.1hPa Calm   2.0mph /  3.2km/h 36% 0.13in /  3.3mm
19:59 55.0 °F /  12.8 °C 30.5 °F /  -0.8 °C 29.92in /  1013.1hPa Calm   1.0mph /  1.6km/h 39% 0.13in /  3.3mm
20:04 54.2 °F /  12.3 °C 29.8 °F /  -1.2 °C 29.92in /  1013.1hPa Calm   2.0mph /  3.2km/h 39% 0.13in /  3.3mm
20:09 53.5 °F /  11.9 °C 29.2 °F /  -1.6 °C 29.93in /  1013.4hPa Calm   2.0mph /  3.2km/h 39% 0.13in /  3.3mm
20:14 52.8 °F /  11.6 °C 29.8 °F /  -1.2 °C 29.93in /  1013.4hPa Calm   1.0mph /  1.6km/h 41% 0.13in /  3.3mm
20:19 52.2 °F /  11.2 °C 29.8 °F /  -1.2 °C 29.93in /  1013.4hPa Calm     42% 0.13in /  3.3mm
20:24 51.5 °F /  10.8 °C 29.7 °F /  -1.3 °C 29.93in /  1013.4hPa Calm     43% 0.13in /  3.3mm
20:29 50.9 °F /  10.5 °C 29.2 °F /  -1.6 °C 29.93in /  1013.4hPa Calm   1.0mph /  1.6km/h 43% 0.13in /  3.3mm
20:35 50.5 °F /  10.3 °C 28.8 °F /  -1.8 °C 29.93in /  1013.4hPa Calm   1.0mph /  1.6km/h 43% 0.13in /  3.3mm
20:40 50.5 °F /  10.3 °C 28.8 °F /  -1.8 °C 29.93in /  1013.4hPa Calm     43% 0.13in /  3.3mm
20:49 49.9 °F /  9.9 °C 30.5 °F /  -0.8 °C 29.94in /  1013.8hPa Calm     47% 0.13in /  3.3mm
21:05 49.2 °F /  9.6 °C 30.4 °F /  -0.9 °C 29.95in /  1014.1hPa Calm     48% 0.13in /  3.3mm
21:15 48.8 °F /  9.3 °C 28.9 °F /  -1.7 °C 29.95in /  1014.1hPa Calm     46% 0.13in /  3.3mm
21:20 48.2 °F /  9 °C 30.4 °F /  -0.9 °C 29.95in /  1014.1hPa Calm     50% 0.13in /  3.3mm
21:25 47.9 °F /  8.8 °C 31.1 °F /  -0.5 °C 29.95in /  1014.1hPa Calm     52% 0.13in /  3.3mm
21:30 47.9 °F /  8.8 °C 30.6 °F /  -0.8 °C 29.96in /  1014.4hPa Calm     51% 0.13in /  3.3mm
21:35 47.9 °F /  8.8 °C 28.1 °F /  -2.2 °C 29.96in /  1014.4hPa Calm     46% 0.13in /  3.3mm
21:40 48.1 °F /  8.9 °C 28.3 °F /  -2.1 °C 29.96in /  1014.4hPa Calm     46% 0.13in /  3.3mm
21:50 48.1 °F /  8.9 °C 29.8 °F /  -1.2 °C 29.96in /  1014.4hPa Calm     49% 0.13in /  3.3mm
21:55 48.0 °F /  8.9 °C 29.8 °F /  -1.2 °C 29.97in /  1014.8hPa Calm   3.0mph /  4.8km/h 49% 0.13in /  3.3mm
22:00 47.8 °F /  8.8 °C 28.0 °F /  -2.2 °C 29.97in /  1014.8hPa Calm   3.0mph /  4.8km/h 46% 0.13in /  3.3mm
22:05 47.4 °F /  8.6 °C 29.7 °F /  -1.3 °C 29.97in /  1014.8hPa Calm   1.0mph /  1.6km/h 50% 0.13in /  3.3mm
22:10 47.1 °F /  8.4 °C 28.4 °F /  -2 °C 29.97in /  1014.8hPa Calm   1.0mph /  1.6km/h 48% 0.13in /  3.3mm
22:15 47.2 °F /  8.4 °C 29.0 °F /  -1.7 °C 29.97in /  1014.8hPa Calm   2.0mph /  3.2km/h 49% 0.13in /  3.3mm
22:20 47.0 °F /  8.3 °C 28.8 °F /  -1.8 °C 29.97in /  1014.8hPa Calm   2.0mph /  3.2km/h 49% 0.13in /  3.3mm
22:25 46.6 °F /  8.1 °C 28.5 °F /  -1.9 °C 29.97in /  1014.8hPa Calm   1.0mph /  1.6km/h 49% 0.13in /  3.3mm
22:30 46.8 °F /  8.2 °C 27.6 °F /  -2.4 °C 29.97in /  1014.8hPa Calm   1.0mph /  1.6km/h 47% 0.13in /  3.3mm
22:35 47.0 °F /  8.3 °C 28.3 °F /  -2.1 °C 29.97in /  1014.8hPa Calm     48% 0.13in /  3.3mm
22:40 47.1 °F /  8.4 °C 27.4 °F /  -2.6 °C 29.97in /  1014.8hPa WNW 1.0mph /  1.6km/h 4.0mph /  6.4km/h 46% 0.13in /  3.3mm
22:45 47.3 °F /  8.5 °C 28.6 °F /  -1.9 °C 29.97in /  1014.8hPa Calm   4.0mph /  6.4km/h 48% 0.13in /  3.3mm
22:55 46.5 °F /  8.1 °C 29.3 °F /  -1.5 °C 29.98in /  1015.1hPa Calm   1.0mph /  1.6km/h 51% 0.13in /  3.3mm
23:05 46.5 °F /  8.1 °C 28.4 °F /  -2 °C 29.98in /  1015.1hPa Calm   1.0mph /  1.6km/h 49% 0.13in /  3.3mm
23:10 47.3 °F /  8.5 °C 29.1 °F /  -1.6 °C 29.98in /  1015.1hPa Calm   1.0mph /  1.6km/h 49% 0.13in /  3.3mm
23:15 47.3 °F /  8.5 °C 28.6 °F /  -1.9 °C 29.98in /  1015.1hPa Calm   1.0mph /  1.6km/h 48% 0.13in /  3.3mm
23:20 47.3 °F /  8.5 °C 28.6 °F /  -1.9 °C 29.98in /  1015.1hPa Calm   1.0mph /  1.6km/h 48% 0.13in /  3.3mm
23:25 47.2 °F /  8.4 °C 28.5 °F /  -1.9 °C 29.98in /  1015.1hPa Calm   1.0mph /  1.6km/h 48% 0.13in /  3.3mm
23:30 47.0 °F /  8.3 °C 28.8 °F /  -1.8 °C 29.98in /  1015.1hPa Calm   5.0mph /  8km/h 49% 0.13in /  3.3mm
23:40 46.5 °F /  8.1 °C 29.8 °F /  -1.2 °C 29.98in /  1015.1hPa WNW 1.0mph /  1.6km/h 4.0mph /  6.4km/h 52% 0.13in /  3.3mm
23:50 46.8 °F /  8.2 °C 29.1 °F /  -1.6 °C 29.98in /  1015.1hPa Calm     50% 0.13in /  3.3mm
23:55 46.6 °F /  8.1 °C 30.4 °F /  -0.9 °C 29.99in /  1015.5hPa Calm   1.0mph /  1.6km/h 53% 0.13in /  3.3mm
Westford Weather
Compliments of Weather Underground

 
 
Current Radar Loop:

Copyright © WestfordWeather.net 2007-2014. All rights reserved.